Time;durP1;ratioP1;P1;durP2;ratioP2;P2;SDS_P1;SDS_P2;PMS_P1;PMS_P2;Temp;Humidity;BMP_temperature;BMP_pressure;BME280_temperature;BME280_humidity;BME280_pressure;Samples;Min_cycle;Max_cycle;Signal;HPM_P1;HPM_P2
2022/10/09 00:01:24;;;;;;;0.40;0.20;;;;;;;13.91;66.24;95658.19;5133434;27;20433;-55
2022/10/09 00:03:54;;;;;;;0.40;0.30;;;;;;;14.00;66.10;95653.03;5133024;27;20485;-55
2022/10/09 00:06:24;;;;;;;0.40;0.20;;;;;;;14.28;66.26;95710.06;5132962;27;20429;-55
2022/10/09 00:08:53;;;;;;;0.40;0.23;;;;;;;13.80;68.83;95699.34;5133343;27;20426;-55
2022/10/09 00:11:23;;;;;;;0.40;0.27;;;;;;;14.04;67.94;95703.94;5133190;27;20926;-55
2022/10/09 00:13:53;;;;;;;0.90;0.30;;;;;;;14.05;67.72;95706.31;5133450;27;20451;-55
2022/10/09 00:16:22;;;;;;;0.40;0.27;;;;;;;14.02;67.76;95698.84;5133467;27;20432;-55
2022/10/09 00:18:51;;;;;;;0.93;0.93;;;;;;;14.09;67.26;95696.66;5133151;27;20429;-55
2022/10/09 00:21:22;;;;;;;0.40;0.20;;;;;;;14.17;66.83;95679.25;5133118;27;20433;-55
2022/10/09 00:23:54;;;;;;;0.40;0.20;;;;;;;14.00;67.71;95693.81;5132621;27;20480;-55
2022/10/09 00:26:23;;;;;;;0.40;0.30;;;;;;;14.06;67.44;95685.78;5133396;27;20897;-55
2022/10/09 00:28:53;;;;;;;0.40;0.40;;;;;;;13.55;67.27;95598.34;5133281;27;20433;-55
2022/10/09 00:31:21;;;;;;;0.60;0.30;;;;;;;14.15;67.21;95679.53;5133048;27;20434;-55
2022/10/09 00:33:50;;;;;;;0.40;0.20;;;;;;;13.87;67.46;95651.84;5132460;27;20476;-55
2022/10/09 00:36:21;;;;;;;0.43;0.30;;;;;;;13.90;67.97;95688.59;5132699;27;20421;-55
2022/10/09 00:38:49;;;;;;;0.60;0.40;;;;;;;13.76;67.56;95642.34;5132109;27;20433;-55
2022/10/09 00:41:20;;;;;;;0.40;0.20;;;;;;;13.71;66.41;95591.00;5133099;27;20453;-55
2022/10/09 00:43:51;;;;;;;0.40;0.30;;;;;;;14.27;66.15;95677.28;5132392;27;20472;-55
2022/10/09 00:46:28;;;;;;;0.43;0.30;;;;;;;14.21;66.07;95677.63;5132624;27;20432;-55
2022/10/09 00:49:04;;;;;;;0.40;0.20;;;;;;;14.17;66.02;95668.59;5131888;27;20463;-55
2022/10/09 00:51:34;;;;;;;0.40;0.30;;;;;;;14.06;66.63;95667.13;5132791;27;20784;-55
2022/10/09 00:54:04;;;;;;;0.43;0.30;;;;;;;13.70;67.05;95632.03;5132980;27;20460;-55
2022/10/09 00:56:34;;;;;;;0.40;0.30;;;;;;;13.89;66.94;95660.34;5133043;27;20425;-55
2022/10/09 00:59:04;;;;;;;0.40;0.20;;;;;;;13.92;67.36;95677.63;5133042;27;20821;-55
2022/10/09 01:01:33;;;;;;;0.40;0.20;;;;;;;13.45;69.30;95658.88;5132676;27;20416;-55
2022/10/09 01:04:02;;;;;;;0.40;0.20;;;;;;;13.11;70.77;95608.28;5132433;27;21054;-55
2022/10/09 01:06:46;;;;;;;0.40;0.30;;;;;;;12.79;71.92;95631.88;5132892;27;20423;-55
2022/10/09 01:09:19;;;;;;;0.40;0.20;;;;;;;12.52;77.32;95677.50;5132471;27;20429;-55
2022/10/09 01:11:52;;;;;;;0.50;0.30;;;;;;;11.90;81.75;95652.16;5132288;27;20440;-55
2022/10/09 01:14:26;;;;;;;0.77;0.50;;;;;;;12.21;79.23;95604.25;5131965;27;20424;-55
2022/10/09 01:17:06;;;;;;;0.40;0.30;;;;;;;12.27;81.60;95659.75;5132584;27;20429;-55
2022/10/09 01:19:50;;;;;;;0.50;0.33;;;;;;;12.03;84.33;95683.50;5132575;27;20746;-55
2022/10/09 01:22:37;;;;;;;0.40;0.20;;;;;;;11.91;88.31;95672.34;5132284;27;20425;-55
2022/10/09 01:25:09;;;;;;;0.40;0.30;;;;;;;11.88;89.73;95683.50;5132153;27;20510;-55
2022/10/09 01:27:40;;;;;;;0.50;0.30;;;;;;;11.77;88.43;95618.19;5132253;27;20917;-55
2022/10/09 01:30:12;;;;;;;0.50;0.30;;;;;;;12.34;86.18;95670.91;5132593;27;20434;-55
2022/10/09 01:32:44;;;;;;;0.50;0.30;;;;;;;12.73;82.43;95673.66;5132683;27;20426;-55
2022/10/09 01:35:14;;;;;;;1.03;0.40;;;;;;;12.70;82.25;95663.56;5131677;27;21002;-55
2022/10/09 01:37:45;;;;;;;0.40;0.27;;;;;;;12.53;83.41;95677.22;5132600;27;20422;-55
2022/10/09 01:40:16;;;;;;;0.50;0.30;;;;;;;12.61;82.52;95668.69;5132452;27;20453;-55
2022/10/09 01:42:46;;;;;;;0.40;0.20;;;;;;;12.54;82.92;95664.72;5132578;27;20766;-55
2022/10/09 01:45:16;;;;;;;0.40;0.20;;;;;;;12.71;80.77;95671.28;5132444;27;20532;-55
2022/10/09 01:47:44;;;;;;;0.60;0.40;;;;;;;12.61;81.17;95673.19;5132147;27;20430;-55
2022/10/09 01:50:22;;;;;;;0.50;0.40;;;;;;;12.58;81.18;95666.56;5132264;27;20441;-55
2022/10/09 01:52:53;;;;;;;0.60;0.40;;;;;;;12.67;80.04;95658.81;5132161;27;20451;-55
2022/10/09 01:55:38;;;;;;;0.40;0.30;;;;;;;12.96;78.12;95666.88;5132445;27;20433;-55
2022/10/09 01:58:16;;;;;;;0.40;0.30;;;;;;;12.72;79.15;95667.53;5136049;27;20430;-55
2022/10/09 02:00:48;;;;;;;0.50;0.30;;;;;;;12.86;78.06;95661.63;5135980;27;20421;-55
2022/10/09 02:03:17;;;;;;;0.40;0.20;;;;;;;13.05;76.66;95666.06;5136102;27;20436;-55
2022/10/09 02:05:49;;;;;;;1.23;0.50;;;;;;;13.08;76.72;95664.75;5135542;27;20503;-55
2022/10/09 02:08:20;;;;;;;0.50;0.47;;;;;;;12.83;77.42;95668.28;5135784;27;20923;-55
2022/10/09 02:10:52;;;;;;;0.40;0.30;;;;;;;12.80;78.15;95678.69;5135296;27;20464;-55
2022/10/09 02:13:23;;;;;;;0.80;0.40;;;;;;;12.54;79.47;95665.53;5135961;27;20417;-55
2022/10/09 02:15:56;;;;;;;0.50;0.30;;;;;;;12.63;80.28;95679.84;5135607;27;20956;-55
2022/10/09 02:18:31;;;;;;;0.40;0.30;;;;;;;12.71;80.01;95681.13;5135510;27;20916;-55
2022/10/09 02:21:06;;;;;;;0.40;0.37;;;;;;;12.21;80.07;95610.38;5135220;27;20426;-55
2022/10/09 02:23:38;;;;;;;0.40;0.20;;;;;;;12.57;80.14;95670.28;5135170;27;20468;-55
2022/10/09 02:26:08;;;;;;;2.50;0.47;;;;;;;12.88;79.09;95692.19;5134907;27;20840;-55
2022/10/09 02:28:38;;;;;;;0.40;0.30;;;;;;;12.70;79.38;95692.81;5135642;27;20940;-55
2022/10/09 02:31:20;;;;;;;0.50;0.30;;;;;;;12.69;79.22;95692.03;5135026;27;21115;-55
2022/10/09 02:33:55;;;;;;;0.40;0.40;;;;;;;12.64;79.56;95702.72;5135378;27;20437;-55
2022/10/09 02:36:24;;;;;;;0.40;0.20;;;;;;;12.77;77.34;95687.22;5135257;27;20511;-55
2022/10/09 02:38:52;;;;;;;0.50;0.40;;;;;;;12.33;80.42;95689.78;5135463;27;20429;-55
2022/10/09 02:41:21;;;;;;;0.50;0.30;;;;;;;12.17;83.08;95683.69;5134858;27;20428;-55
2022/10/09 02:43:51;;;;;;;0.40;0.30;;;;;;;12.17;84.59;95702.31;5135169;27;20433;-55
2022/10/09 02:46:19;;;;;;;0.40;0.30;;;;;;;12.26;81.50;95679.44;5135279;27;20846;-55
2022/10/09 02:48:48;;;;;;;0.40;0.30;;;;;;;12.69;79.18;95710.66;5135092;27;20429;-55
2022/10/09 02:51:16;;;;;;;1.07;0.50;;;;;;;12.62;79.56;95699.50;5135099;27;20433;-55
2022/10/09 02:53:44;;;;;;;1.53;0.40;;;;;;;12.62;78.45;95691.53;5134697;27;20438;-55
2022/10/09 02:56:13;;;;;;;0.40;0.20;;;;;;;12.11;79.95;95700.75;5135075;27;20482;-55
2022/10/09 02:58:41;;;;;;;0.40;0.30;;;;;;;12.21;81.51;95698.06;5134888;27;20459;-55
2022/10/09 03:01:11;;;;;;;0.40;0.30;;;;;;;12.46;79.20;95702.50;5134614;27;20429;-55
2022/10/09 03:03:39;;;;;;;18.57;0.50;;;;;;;12.06;78.42;95642.31;5134520;27;20441;-55
2022/10/09 03:06:11;;;;;;;0.40;0.30;;;;;;;12.53;78.43;95710.97;5134859;27;20479;-55
2022/10/09 03:08:41;;;;;;;0.40;0.20;;;;;;;12.56;78.20;95710.44;5134131;27;20432;-55
2022/10/09 03:11:10;;;;;;;0.40;0.30;;;;;;;12.58;78.22;95717.06;5135020;27;20432;-55
2022/10/09 03:13:39;;;;;;;0.40;0.20;;;;;;;12.52;77.24;95699.53;5134828;27;20417;-55
2022/10/09 03:16:09;;;;;;;0.67;0.67;;;;;;;12.19;77.49;95657.69;5133573;27;20499;-55
2022/10/09 03:18:40;;;;;;;0.40;0.30;;;;;;;12.56;76.99;95703.25;5134174;27;20461;-55
2022/10/09 03:21:10;;;;;;;0.40;0.20;;;;;;;12.46;77.75;95711.28;5134467;27;20429;-55
2022/10/09 03:23:39;;;;;;;0.40;0.20;;;;;;;12.38;77.75;95695.06;5134281;27;21018;-56
2022/10/09 03:26:09;;;;;;;0.43;0.27;;;;;;;12.26;77.76;95699.91;5133986;27;20484;-55
2022/10/09 03:28:39;;;;;;;0.40;0.40;;;;;;;12.73;76.87;95721.53;5134346;27;20423;-55
2022/10/09 03:31:07;;;;;;;0.40;0.20;;;;;;;12.70;76.70;95722.88;5134226;27;20425;-55
2022/10/09 03:33:36;;;;;;;0.40;0.30;;;;;;;12.77;76.20;95720.72;5133687;27;20430;-56
2022/10/09 03:36:07;;;;;;;0.40;0.30;;;;;;;12.39;76.27;95683.38;5133823;27;20421;-56
2022/10/09 03:38:36;;;;;;;0.40;0.20;;;;;;;12.64;76.56;95729.31;5134158;27;20433;-55
2022/10/09 03:41:05;;;;;;;0.50;0.30;;;;;;;11.97;79.59;95691.72;5134114;27;20425;-55
2022/10/09 03:43:34;;;;;;;0.40;0.20;;;;;;;12.31;79.22;95726.47;5133870;27;20788;-56
2022/10/09 03:46:05;;;;;;;0.40;0.20;;;;;;;12.44;77.79;95729.38;5133862;27;20466;-56
2022/10/09 03:48:34;;;;;;;0.40;0.30;;;;;;;12.49;77.59;95737.31;5133827;27;20440;-55
2022/10/09 03:51:03;;;;;;;1.10;0.50;;;;;;;12.36;77.69;95732.56;5133881;27;20433;-55
2022/10/09 03:53:33;;;;;;;0.40;0.40;;;;;;;12.46;77.19;95740.53;5133943;27;20539;-55
2022/10/09 03:56:01;;;;;;;0.40;0.20;;;;;;;12.78;76.91;95740.13;5133766;27;20916;-56
2022/10/09 03:58:29;;;;;;;0.40;0.30;;;;;;;12.69;76.25;95741.78;5133997;27;20427;-56
2022/10/09 04:00:57;;;;;;;0.60;0.43;;;;;;;12.73;76.01;95751.59;5133600;27;20440;-55
2022/10/09 04:03:26;;;;;;;0.40;0.30;;;;;;;12.71;75.97;95743.09;5133513;27;20517;-55
2022/10/09 04:05:55;;;;;;;0.40;0.30;;;;;;;12.63;76.49;95750.81;5133354;27;20976;-55
2022/10/09 04:08:23;;;;;;;0.57;0.30;;;;;;;12.46;78.71;95753.00;5133494;27;20913;-55
2022/10/09 04:10:58;;;;;;;0.40;0.30;;;;;;;12.45;79.49;95751.41;5133851;27;20776;-55
2022/10/09 04:13:27;;;;;;;0.40;0.27;;;;;;;12.56;77.49;95742.34;5133114;27;20425;-55
2022/10/09 04:15:55;;;;;;;0.50;0.30;;;;;;;12.12;79.00;95747.47;5132978;27;20421;-56
2022/10/09 04:18:24;;;;;;;0.40;0.30;;;;;;;12.18;79.50;95757.06;5133584;27;20429;-56
2022/10/09 04:20:54;;;;;;;0.40;0.30;;;;;;;12.18;78.97;95746.44;5132217;27;20432;-56
2022/10/09 04:23:25;;;;;;;0.50;0.47;;;;;;;12.04;79.10;95740.06;5132151;27;20481;-53
2022/10/09 04:25:54;;;;;;;0.50;0.40;;;;;;;12.01;79.44;95740.59;5133004;27;20461;-54
2022/10/09 04:28:25;;;;;;;1.00;1.00;;;;;;;11.62;79.92;95683.75;5132972;27;20829;-55
2022/10/09 04:30:53;;;;;;;0.40;0.30;;;;;;;11.94;79.98;95740.09;5133033;27;20914;-54
2022/10/09 04:33:21;;;;;;;0.70;0.60;;;;;;;12.02;80.00;95747.50;5133351;27;20424;-54
2022/10/09 04:35:51;;;;;;;4.10;0.30;;;;;;;12.33;77.97;95749.06;5132971;27;20422;-54
2022/10/09 04:38:20;;;;;;;0.50;0.40;;;;;;;12.49;76.38;95752.47;5133008;27;20929;-54
2022/10/09 04:40:56;;;;;;;0.43;0.43;;;;;;;12.23;77.09;95746.41;5132938;27;20912;-54
2022/10/09 04:43:25;;;;;;;13.23;0.60;;;;;;;12.24;77.86;95749.88;5132983;27;20417;-54
2022/10/09 04:45:54;;;;;;;0.40;0.30;;;;;;;11.31;79.14;95667.03;5132480;27;20992;-54
2022/10/09 04:48:22;;;;;;;0.47;0.40;;;;;;;11.89;80.23;95754.16;5132787;27;20834;-54
2022/10/09 04:50:51;;;;;;;0.60;0.60;;;;;;;12.08;79.04;95746.44;5132179;27;20434;-54
2022/10/09 04:53:19;;;;;;;0.40;0.30;;;;;;;12.10;79.73;95749.63;5132764;27;20429;-54
2022/10/09 04:55:48;;;;;;;0.50;0.30;;;;;;;11.76;82.98;95759.22;5132749;27;20499;-54
2022/10/09 04:58:16;;;;;;;2.90;0.60;;;;;;;11.41;86.46;95757.28;5132931;27;20435;-54
2022/10/09 05:00:46;;;;;;;0.70;0.50;;;;;;;10.98;92.34;95752.41;5133024;27;20903;-54
2022/10/09 05:03:15;;;;;;;11.50;0.90;;;;;;;10.77;96.46;95759.50;5132681;27;20524;-54
2022/10/09 05:05:43;;;;;;;0.60;0.47;;;;;;;10.58;100.00;95760.97;5132587;27;20472;-54
2022/10/09 05:08:11;;;;;;;1.47;1.23;;;;;;;10.49;100.00;95771.28;5132847;27;20425;-54
2022/10/09 05:10:39;;;;;;;2.30;0.97;;;;;;;10.44;100.00;95763.31;5132842;27;20433;-55
2022/10/09 05:13:08;;;;;;;0.40;0.30;;;;;;;10.70;100.00;95761.59;5132764;27;20437;-55
2022/10/09 05:15:36;;;;;;;0.70;0.70;;;;;;;10.62;98.71;95770.03;5132791;27;20463;-55
2022/10/09 05:18:06;;;;;;;0.40;0.30;;;;;;;10.77;97.36;95767.44;5132453;27;20436;-55
2022/10/09 05:20:34;;;;;;;1.10;0.50;;;;;;;11.10;93.55;95772.34;5132481;27;20922;-55
2022/10/09 05:23:02;;;;;;;0.57;0.40;;;;;;;10.56;94.57;95723.34;5132134;27;20425;-55
2022/10/09 05:25:31;;;;;;;0.40;0.30;;;;;;;10.90;95.01;95768.81;5132437;27;20562;-55
2022/10/09 05:27:59;;;;;;;0.70;0.70;;;;;;;10.65;95.67;95786.19;5132250;27;20440;-55
2022/10/09 05:30:27;;;;;;;0.60;0.40;;;;;;;10.70;97.04;95786.22;5132386;27;20934;-55
2022/10/09 05:32:55;;;;;;;0.40;0.30;;;;;;;11.29;92.64;95791.22;5136672;27;20430;-54
2022/10/09 05:35:25;;;;;;;0.40;0.37;;;;;;;11.20;88.98;95776.88;5136714;27;20424;-54
2022/10/09 05:37:53;;;;;;;0.73;0.67;;;;;;;11.38;89.23;95800.28;5136414;27;20835;-54
2022/10/09 05:40:22;;;;;;;0.40;0.30;;;;;;;11.61;88.28;95797.16;5136593;27;20425;-54
2022/10/09 05:42:56;;;;;;;0.70;0.30;;;;;;;11.62;86.52;95790.75;5136216;27;20458;-54
2022/10/09 05:45:24;;;;;;;1.03;0.93;;;;;;;12.16;83.77;95792.94;5136513;27;20447;-55
2022/10/09 05:47:52;;;;;;;0.50;0.47;;;;;;;12.46;81.51;95806.97;5136379;27;20481;-54
2022/10/09 05:50:21;;;;;;;0.40;0.30;;;;;;;13.06;78.42;95807.88;5136520;27;20773;-54
2022/10/09 05:52:50;;;;;;;0.40;0.30;;;;;;;13.71;75.29;95804.88;5135991;27;20433;-54
2022/10/09 05:55:19;;;;;;;0.40;0.30;;;;;;;14.12;73.07;95809.91;5135962;27;20441;-54
2022/10/09 05:57:49;;;;;;;0.40;0.40;;;;;;;13.73;73.14;95818.75;5136122;27;20437;-55
2022/10/09 06:00:17;;;;;;;0.40;0.30;;;;;;;13.69;73.72;95825.69;5135691;27;20952;-55
2022/10/09 06:02:46;;;;;;;0.40;0.30;;;;;;;13.89;72.84;95835.41;5135912;27;20429;-55
2022/10/09 06:05:15;;;;;;;1.53;1.47;;;;;;;14.09;71.40;95797.16;5135208;27;20425;-55
2022/10/09 06:07:43;;;;;;;0.40;0.30;;;;;;;14.65;70.01;95824.16;5135926;27;20508;-55
2022/10/09 06:10:13;;;;;;;0.40;0.30;;;;;;;14.93;69.39;95812.63;5135660;27;20427;-55
2022/10/09 06:12:41;;;;;;;1.00;1.00;;;;;;;15.32;69.05;95820.47;5135839;27;20433;-56
2022/10/09 06:15:10;;;;;;;0.40;0.30;;;;;;;15.72;67.15;95810.06;5135776;27;20414;-56
2022/10/09 06:17:38;;;;;;;0.90;0.90;;;;;;;16.01;66.36;95809.91;5135751;27;20431;-56
2022/10/09 06:20:07;;;;;;;0.87;0.50;;;;;;;16.29;65.02;95816.16;5135912;27;20479;-58
2022/10/09 06:22:35;;;;;;;0.60;0.60;;;;;;;16.42;64.93;95813.50;5135520;27;20425;-58
2022/10/09 06:25:04;;;;;;;1.07;0.93;;;;;;;16.71;63.49;95807.16;5135582;27;20470;-59
2022/10/09 06:27:33;;;;;;;1.27;0.60;;;;;;;16.89;63.00;95808.94;5135577;27;20484;-60
2022/10/09 06:30:02;;;;;;;0.50;0.50;;;;;;;16.96;61.05;95806.66;5135094;27;20777;-60
2022/10/09 06:32:30;;;;;;;0.50;0.40;;;;;;;17.62;59.85;95809.63;5135208;27;20437;-60
2022/10/09 06:34:58;;;;;;;0.40;0.30;;;;;;;17.86;59.64;95812.03;5135258;27;20435;-60
2022/10/09 06:37:27;;;;;;;1.63;1.53;;;;;;;17.02;59.30;95817.00;5135399;27;20516;-60
2022/10/09 06:39:55;;;;;;;0.80;0.80;;;;;;;17.23;59.61;95820.06;5135446;27;20427;-61
2022/10/09 06:42:23;;;;;;;1.37;1.27;;;;;;;16.98;60.78;95805.28;5134505;27;20917;-61
2022/10/09 06:44:55;;;;;;;1.43;0.90;;;;;;;18.04;59.95;95826.38;5134985;27;20438;-61
2022/10/09 06:47:24;;;;;;;0.93;0.83;;;;;;;18.31;57.92;95821.72;5134366;27;20481;-58
2022/10/09 06:49:52;;;;;;;3.80;1.10;;;;;;;17.80;58.15;95821.31;5134570;27;20948;-58
2022/10/09 06:52:21;;;;;;;2.30;0.63;;;;;;;18.70;57.31;95821.03;5132272;27;20458;-57
2022/10/09 06:54:49;;;;;;;4.83;1.03;;;;;;;18.49;55.90;95827.22;5132508;27;20430;-57
2022/10/09 06:57:17;;;;;;;0.50;0.40;;;;;;;18.94;55.34;95824.16;5134266;27;20421;-57
2022/10/09 06:59:48;;;;;;;0.47;0.30;;;;;;;19.46;53.93;95765.22;5134416;27;20419;-58
2022/10/09 07:02:18;;;;;;;0.90;0.70;;;;;;;19.59;54.29;95823.44;5134620;27;20426;-58
2022/10/09 07:04:47;;;;;;;0.77;0.77;;;;;;;20.25;53.03;95814.97;5133213;27;20472;-58
2022/10/09 07:07:15;;;;;;;0.40;0.30;;;;;;;19.80;53.08;95813.69;5132294;27;20469;-58
2022/10/09 07:09:44;;;;;;;3.50;1.20;;;;;;;19.82;51.52;95757.66;5132654;27;20428;-58
2022/10/09 07:12:12;;;;;;;0.50;0.40;;;;;;;20.85;51.17;95812.16;5132981;27;20434;-58
2022/10/09 07:14:40;;;;;;;0.70;0.50;;;;;;;20.64;51.84;95772.78;5132612;27;20423;-57
2022/10/09 07:17:08;;;;;;;0.83;0.60;;;;;;;21.14;49.61;95807.97;5133625;27;20459;-57
2022/10/09 07:19:38;;;;;;;3.73;1.13;;;;;;;21.41;49.45;95805.63;5133822;27;20955;-57
2022/10/09 07:22:10;;;;;;;0.60;0.50;;;;;;;21.73;48.56;95814.16;5134586;27;20916;-57
2022/10/09 07:24:38;;;;;;;0.90;0.90;;;;;;;20.15;47.97;95666.44;5133820;27;20481;-57
2022/10/09 07:27:07;;;;;;;0.70;0.57;;;;;;;20.70;48.09;95752.63;5134097;27;20473;-57
2022/10/09 07:29:35;;;;;;;0.60;0.50;;;;;;;22.47;45.99;95779.09;5134426;27;20425;-57
2022/10/09 07:32:03;;;;;;;0.53;0.40;;;;;;;21.56;46.36;95709.84;5133994;27;20961;-56
2022/10/09 07:34:38;;;;;;;0.60;0.40;;;;;;;22.96;45.08;95802.47;5134351;27;20482;-56
2022/10/09 07:37:07;;;;;;;2.60;0.87;;;;;;;23.03;44.27;95791.06;5134259;27;20438;-56
2022/10/09 07:39:35;;;;;;;0.93;0.93;;;;;;;23.02;43.81;95792.22;5133808;27;20423;-56
2022/10/09 07:42:04;;;;;;;0.60;0.60;;;;;;;23.19;43.40;95794.69;5133900;27;20419;-55
2022/10/09 07:44:33;;;;;;;1.10;1.10;;;;;;;23.82;43.61;95794.00;5133931;27;20435;-55
2022/10/09 07:47:01;;;;;;;0.70;0.70;;;;;;;23.28;43.64;95781.84;5134014;27;20521;-55
2022/10/09 07:49:30;;;;;;;1.87;1.13;;;;;;;23.81;42.33;95769.97;5133714;27;20431;-55
2022/10/09 07:52:00;;;;;;;0.73;0.73;;;;;;;23.98;41.59;95786.75;5133881;27;20488;-55
2022/10/09 07:54:28;;;;;;;0.63;0.60;;;;;;;24.18;41.32;95782.31;5133345;27;20427;-55
2022/10/09 07:56:56;;;;;;;0.60;0.60;;;;;;;24.59;41.65;95779.19;5133457;27;20424;-54
2022/10/09 07:59:24;;;;;;;0.57;0.50;;;;;;;24.79;41.13;95733.25;5133875;27;20915;-55
2022/10/09 08:01:53;;;;;;;0.40;0.40;;;;;;;25.11;39.87;95743.75;5133796;27;20420;-53
2022/10/09 08:04:21;;;;;;;0.53;0.40;;;;;;;25.56;39.78;95772.34;5133673;27;20434;-53
2022/10/09 08:06:49;;;;;;;0.47;0.33;;;;;;;26.41;39.41;95767.59;5133517;27;20435;-53
2022/10/09 08:09:19;;;;;;;5.23;0.60;;;;;;;25.59;39.65;95767.00;5133658;27;20485;-53
2022/10/09 08:11:47;;;;;;;0.60;0.60;;;;;;;24.71;40.26;95774.84;5133263;27;20427;-54
2022/10/09 08:14:17;;;;;;;0.40;0.30;;;;;;;24.26;40.10;95704.75;5132917;27;20825;-54
2022/10/09 08:16:47;;;;;;;2.40;0.97;;;;;;;24.68;40.35;95767.41;5132637;27;20995;-54
2022/10/09 08:19:15;;;;;;;0.70;0.70;;;;;;;25.52;39.08;95741.63;5133189;27;20415;-53
2022/10/09 08:21:43;;;;;;;0.80;0.60;;;;;;;26.13;38.16;95768.97;5133160;27;20934;-53
2022/10/09 08:24:12;;;;;;;0.90;0.60;;;;;;;25.73;38.98;95764.59;5132737;27;20463;-53
2022/10/09 08:26:43;;;;;;;0.70;0.70;;;;;;;25.76;38.77;95766.59;5132915;27;20449;-54
2022/10/09 08:29:12;;;;;;;0.50;0.40;;;;;;;26.46;37.37;95758.38;5133269;27;20582;-54
2022/10/09 08:31:41;;;;;;;0.50;0.40;;;;;;;26.94;36.92;95763.16;5132956;27;20430;-54
2022/10/09 08:34:10;;;;;;;0.50;0.33;;;;;;;27.44;36.35;95715.00;5133231;27;20426;-54
2022/10/09 08:36:38;;;;;;;0.60;0.57;;;;;;;27.21;35.46;95723.19;5132894;27;20424;-54
2022/10/09 08:39:07;;;;;;;1.10;1.10;;;;;;;27.34;35.91;95743.59;5133127;27;20756;-54
2022/10/09 08:41:43;;;;;;;0.40;0.40;;;;;;;27.31;34.60;95596.53;5133030;27;20953;-54
2022/10/09 08:44:16;;;;;;;0.40;0.40;;;;;;;27.47;35.19;95739.56;5133002;27;20823;-54
2022/10/09 08:46:54;;;;;;;0.40;0.40;;;;;;;28.80;35.34;95715.13;5132658;27;20427;-54
2022/10/09 08:49:28;;;;;;;0.40;0.40;;;;;;;28.01;34.29;95670.22;5132592;27;20458;-54
2022/10/09 08:52:00;;;;;;;0.50;0.40;;;;;;;27.63;35.51;95736.66;5132664;27;20419;-54
2022/10/09 08:54:34;;;;;;;0.40;0.37;;;;;;;28.54;34.49;95717.94;5132293;27;20434;-54
2022/10/09 08:57:11;;;;;;;0.40;0.30;;;;;;;29.31;33.59;95722.56;5132656;27;20426;-53
2022/10/09 08:59:39;;;;;;;0.80;0.50;;;;;;;28.62;34.94;95721.56;5132396;27;20415;-53
2022/10/09 09:02:27;;;;;;;0.60;0.60;;;;;;;28.63;33.75;95723.94;5132758;27;20419;-53
2022/10/09 09:05:08;;;;;;;1.03;0.80;;;;;;;28.67;33.71;95713.81;5132803;27;20437;-53
2022/10/09 09:07:47;;;;;;;0.60;0.50;;;;;;;28.77;33.83;95704.16;5136445;27;20415;-54
2022/10/09 09:10:25;;;;;;;0.50;0.47;;;;;;;28.79;34.01;95707.31;5136268;27;20422;-54
2022/10/09 09:13:01;;;;;;;1.33;0.57;;;;;;;29.65;33.22;95699.38;5136074;27;20418;-54
2022/10/09 09:15:41;;;;;;;1.13;1.03;;;;;;;29.31;33.04;95663.28;5136679;27;20422;-54
2022/10/09 09:18:23;;;;;;;0.67;0.40;;;;;;;29.67;32.39;95696.28;5136554;27;20467;-54
2022/10/09 09:20:53;;;;;;;0.60;0.60;;;;;;;30.36;31.43;95699.75;5136594;27;20419;-54
2022/10/09 09:23:27;;;;;;;4.20;0.67;;;;;;;30.75;30.31;95695.91;5136493;27;20414;-54
2022/10/09 09:25:58;;;;;;;0.40;0.37;;;;;;;29.53;31.24;95650.53;5136776;27;20791;-53
2022/10/09 09:28:33;;;;;;;0.50;0.40;;;;;;;30.11;31.32;95689.47;5136290;27;20465;-53
2022/10/09 09:31:08;;;;;;;0.57;0.50;;;;;;;30.21;31.56;95689.91;5136228;27;20441;-55
2022/10/09 09:33:42;;;;;;;0.40;0.40;;;;;;;29.92;31.22;95689.00;5136201;27;20426;-53
2022/10/09 09:36:20;;;;;;;0.50;0.40;;;;;;;30.12;30.95;95682.84;5136136;27;20414;-54
2022/10/09 09:38:50;;;;;;;0.40;0.33;;;;;;;30.84;30.82;95681.84;5136474;27;20436;-54
2022/10/09 09:41:40;;;;;;;0.50;0.40;;;;;;;31.33;30.94;95650.94;5136148;27;20442;-54
2022/10/09 09:44:13;;;;;;;0.50;0.40;;;;;;;30.81;29.89;95674.44;5136179;27;20425;-54
2022/10/09 09:46:42;;;;;;;0.40;0.37;;;;;;;29.23;31.55;95691.72;5136165;27;20429;-54
2022/10/09 09:49:18;;;;;;;0.47;0.47;;;;;;;30.99;31.40;95688.94;5135852;27;20461;-54
2022/10/09 09:51:48;;;;;;;0.90;0.80;;;;;;;31.14;29.93;95681.50;5136109;27;20426;-54
2022/10/09 09:54:20;;;;;;;0.70;0.60;;;;;;;31.29;28.88;95672.88;5136376;27;20799;-54
2022/10/09 09:56:50;;;;;;;0.40;0.40;;;;;;;31.14;29.56;95670.53;5135865;27;20432;-54
2022/10/09 09:59:41;;;;;;;0.57;0.40;;;;;;;30.74;29.73;95672.44;5135774;27;20506;-54
2022/10/09 10:02:14;;;;;;;0.60;0.60;;;;;;;31.80;28.92;95661.41;5135825;27;20423;-54
2022/10/09 10:04:51;;;;;;;0.33;0.27;;;;;;;32.94;28.64;95667.09;5135689;27;20426;-54
2022/10/09 10:07:31;;;;;;;0.40;0.30;;;;;;;31.40;29.14;95675.56;5135691;27;20429;-54
2022/10/09 10:10:05;;;;;;;3.83;0.47;;;;;;;31.97;29.17;95659.78;5135616;27;20987;-54
2022/10/09 10:12:33;;;;;;;0.40;0.40;;;;;;;31.58;28.12;95661.88;5135496;27;20426;-54
2022/10/09 10:15:03;;;;;;;0.43;0.30;;;;;;;32.89;28.40;95640.84;5135569;27;20862;-54
2022/10/09 10:17:35;;;;;;;0.40;0.30;;;;;;;32.20;27.89;95646.41;5135779;27;20445;-54
2022/10/09 10:20:06;;;;;;;0.90;0.70;;;;;;;31.41;29.39;95644.28;5135339;27;20483;-54
2022/10/09 10:22:35;;;;;;;0.87;0.50;;;;;;;31.89;28.23;95647.28;5135575;27;20418;-54
2022/10/09 10:25:04;;;;;;;0.40;0.30;;;;;;;31.99;28.73;95638.25;5135105;27;20469;-54
2022/10/09 10:27:39;;;;;;;0.40;0.40;;;;;;;31.88;27.79;95588.13;5135644;27;20867;-54
2022/10/09 10:30:14;;;;;;;1.23;0.40;;;;;;;31.92;27.97;95613.59;5135503;27;20844;-53
2022/10/09 10:32:51;;;;;;;0.40;0.40;;;;;;;32.28;28.24;95620.47;5135498;27;20426;-54
2022/10/09 10:35:22;;;;;;;0.40;0.30;;;;;;;32.73;28.42;95628.81;5135178;27;20422;-54
2022/10/09 10:37:55;;;;;;;0.40;0.30;;;;;;;30.49;29.58;95581.34;5135076;27;20426;-54
2022/10/09 10:40:27;;;;;;;0.50;0.50;;;;;;;32.27;28.67;95624.41;5134975;27;20419;-54
2022/10/09 10:43:05;;;;;;;0.40;0.30;;;;;;;32.41;28.79;95582.38;5134973;27;20835;-54
2022/10/09 10:45:44;;;;;;;0.30;0.20;;;;;;;32.61;28.00;95610.88;5135073;27;20430;-54
2022/10/09 10:48:16;;;;;;;0.40;0.30;;;;;;;32.57;27.80;95601.88;5135192;27;20445;-54
2022/10/09 10:50:55;;;;;;;2.83;1.07;;;;;;;31.89;28.55;95546.63;5134756;27;20469;-54
2022/10/09 10:53:37;;;;;;;0.70;0.70;;;;;;;32.95;28.29;95605.47;5134986;27;20426;-54
2022/10/09 10:56:13;;;;;;;0.47;0.30;;;;;;;32.89;28.06;95594.16;5134494;27;20406;-54
2022/10/09 10:58:49;;;;;;;0.40;0.30;;;;;;;34.14;27.02;95599.91;5134820;27;20430;-54
2022/10/09 11:01:30;;;;;;;0.70;0.50;;;;;;;34.68;25.35;95593.22;5134220;27;20429;-55
2022/10/09 11:04:33;;;;;;;0.50;0.40;;;;;;;34.17;26.54;95566.06;5134069;27;20185;-55
2022/10/09 11:07:13;;;;;;;0.50;0.37;;;;;;;34.98;25.61;95586.81;5134413;27;20426;-55
2022/10/09 11:09:52;;;;;;;0.40;0.30;;;;;;;34.24;27.13;95587.97;5134695;27;20469;-55
2022/10/09 11:12:31;;;;;;;0.40;0.40;;;;;;;34.26;26.86;95580.84;5134825;27;20191;-54
2022/10/09 11:15:25;;;;;;;0.60;0.60;;;;;;;32.80;27.82;95585.63;5134613;27;20196;-54
2022/10/09 11:18:03;;;;;;;1.23;0.57;;;;;;;32.34;28.30;95574.97;5134418;27;20189;-54
2022/10/09 11:20:48;;;;;;;1.80;1.70;;;;;;;34.14;27.34;95573.16;5134264;27;20437;-54
2022/10/09 11:23:32;;;;;;;0.43;0.30;;;;;;;35.45;25.79;95569.03;5134427;27;20653;-54
2022/10/09 11:26:12;;;;;;;0.40;0.30;;;;;;;34.33;27.86;95547.72;5134168;27;20430;-54
2022/10/09 11:28:45;;;;;;;0.50;0.50;;;;;;;34.04;27.46;95570.53;5133526;27;20415;-54
2022/10/09 11:31:18;;;;;;;0.60;0.53;;;;;;;34.27;26.95;95565.91;5133948;27;20960;-54
2022/10/09 11:33:52;;;;;;;0.40;0.30;;;;;;;34.64;26.47;95558.66;5134004;27;20423;-54
2022/10/09 11:36:26;;;;;;;12.53;0.47;;;;;;;34.22;27.68;95551.81;5134094;27;20196;-54
2022/10/09 11:38:58;;;;;;;0.53;0.53;;;;;;;33.42;27.32;95560.66;5133941;27;20184;-54
2022/10/09 11:41:29;;;;;;;0.60;0.60;;;;;;;33.65;26.95;95535.31;5134193;27;20649;-55
2022/10/09 11:44:19;;;;;;;0.40;0.30;;;;;;;34.55;27.50;95550.94;5133958;27;20185;-55
2022/10/09 11:46:54;;;;;;;0.40;0.40;;;;;;;35.72;25.67;95541.34;5131873;27;20207;-55
2022/10/09 11:49:36;;;;;;;0.40;0.40;;;;;;;36.21;25.88;95548.53;5133896;27;20818;-55
2022/10/09 11:52:15;;;;;;;0.40;0.40;;;;;;;34.97;25.76;95547.47;5134057;27;20430;-54
2022/10/09 11:54:44;;;;;;;0.73;0.40;;;;;;;35.19;26.18;95533.34;5134025;27;20185;-55